createdAt,value
2022-10-19T00:02:02.010Z,92.93
2022-10-19T00:05:04.421Z,92.12
2022-10-19T00:08:06.658Z,93.25
2022-10-19T00:11:09.052Z,92.78
2022-10-19T00:14:14.595Z,92.27
2022-10-19T00:17:16.768Z,91.64
2022-10-19T00:20:18.938Z,91.69
2022-10-19T00:23:22.889Z,93.51
2022-10-19T00:26:25.328Z,94.70
2022-10-19T00:29:27.491Z,94.12
2022-10-19T00:32:29.739Z,92.70
2022-10-19T00:35:31.897Z,93.70
2022-10-19T00:38:34.072Z,94.72
2022-10-19T00:41:36.784Z,93.64
2022-10-19T00:44:38.901Z,93.12
2022-10-19T00:47:42.709Z,93.18
2022-10-19T00:50:45.746Z,94.16
2022-10-19T00:53:47.971Z,93.39
2022-10-19T00:56:53.162Z,91.96
2022-10-19T00:59:55.744Z,91.10
2022-10-19T01:02:58.976Z,91.55
2022-10-19T01:06:01.851Z,94.05
2022-10-19T01:09:04.048Z,93.72
2022-10-19T01:12:28.606Z,92.04
2022-10-19T01:15:31.140Z,91.20
2022-10-19T01:18:45.926Z,92.26
2022-10-19T01:22:17.302Z,93.06
2022-10-19T01:25:30.568Z,92.91
2022-10-19T01:28:39.085Z,92.60
2022-10-19T01:32:05.823Z,92.83
2022-10-19T01:35:33.684Z,92.78
2022-10-19T01:38:53.851Z,92.23
2022-10-19T01:42:32.919Z,92.38
2022-10-19T01:46:04.714Z,92.12
2022-10-19T01:49:43.469Z,92.30
2022-10-19T01:52:46.869Z,92.04
2022-10-19T01:55:51.848Z,94.95
2022-10-19T01:58:57.995Z,95.05
2022-10-19T02:02:04.223Z,95.39
2022-10-19T02:05:08.228Z,93.93
2022-10-19T02:08:41.848Z,93.57
2022-10-19T02:11:53.406Z,93.50
2022-10-19T02:15:01.056Z,94.62
2022-10-19T02:18:04.644Z,94.96
2022-10-19T02:21:07.645Z,95.24
2022-10-19T02:24:09.909Z,94.34
2022-10-19T02:27:12.795Z,94.68
2022-10-19T02:30:18.076Z,94.01
2022-10-19T02:33:20.349Z,93.11
2022-10-19T02:36:22.613Z,93.62
2022-10-19T02:39:25.367Z,94.25
2022-10-19T02:43:01.884Z,96.01
2022-10-19T02:46:18.126Z,96.36
2022-10-19T02:49:21.459Z,96.06
2022-10-19T02:52:23.708Z,94.56
2022-10-19T02:55:26.298Z,94.55
2022-10-19T02:58:28.555Z,94.69
2022-10-19T03:01:30.753Z,94.31
2022-10-19T03:04:33.037Z,92.97
2022-10-19T03:07:36.037Z,93.54
2022-10-19T03:10:38.551Z,93.75
2022-10-19T03:13:41.674Z,93.94
2022-10-19T03:16:43.925Z,94.99
2022-10-19T03:19:46.235Z,96.39
2022-10-19T03:22:48.678Z,96.69
2022-10-19T03:25:50.843Z,95.65
2022-10-19T03:28:53.118Z,94.53
2022-10-19T03:31:55.581Z,95.03
2022-10-19T03:34:57.754Z,96.11
2022-10-19T03:37:59.897Z,95.75
2022-10-19T03:41:06.232Z,95.19
2022-10-19T03:44:09.858Z,93.98
2022-10-19T03:47:18.776Z,93.84
2022-10-19T03:50:21.346Z,94.36
2022-10-19T03:53:23.547Z,94.38
2022-10-19T03:56:27.598Z,95.04
2022-10-19T03:59:29.779Z,95.42
2022-10-19T04:02:31.931Z,95.13
2022-10-19T04:05:34.169Z,96.58
2022-10-19T04:08:36.816Z,96.51
2022-10-19T04:11:39.689Z,95.96
2022-10-19T04:14:56.209Z,95.23
2022-10-19T04:17:59.743Z,94.13
2022-10-19T04:21:04.459Z,94.64
2022-10-19T04:24:10.095Z,94.72
2022-10-19T04:27:12.323Z,94.07
2022-10-19T04:30:14.513Z,94.97
2022-10-19T04:33:16.657Z,94.45
2022-10-19T04:36:19.290Z,94.15
2022-10-19T04:39:21.442Z,93.75
2022-10-19T04:42:23.604Z,93.85
2022-10-19T04:45:25.775Z,92.98
2022-10-19T04:48:27.937Z,92.06
2022-10-19T04:51:30.271Z,91.55
2022-10-19T04:54:32.433Z,89.83
2022-10-19T04:57:35.053Z,90.29
2022-10-19T05:00:38.588Z,90.78
2022-10-19T05:03:40.960Z,91.84
2022-10-19T05:06:43.209Z,91.88
2022-10-19T05:09:45.348Z,91.92
2022-10-19T05:12:47.527Z,92.04
2022-10-19T05:16:00.383Z,91.46
2022-10-19T05:19:03.118Z,91.86
2022-10-19T05:22:05.346Z,92.54
2022-10-19T05:25:08.175Z,92.38
2022-10-19T05:28:10.555Z,91.79
2022-10-19T05:31:18.319Z,91.10
2022-10-19T05:34:23.762Z,90.32
2022-10-19T05:37:26.176Z,90.24
2022-10-19T05:40:28.660Z,90.05
2022-10-19T05:43:30.857Z,90.46
2022-10-19T05:46:34.077Z,90.67
2022-10-19T05:49:36.313Z,90.76
2022-10-19T05:52:38.560Z,90.28
2022-10-19T05:55:40.871Z,90.01
2022-10-19T05:58:45.074Z,89.62
2022-10-19T06:01:48.118Z,89.41
2022-10-19T06:04:52.734Z,89.56
2022-10-19T06:07:55.191Z,89.25
2022-10-19T06:11:14.233Z,88.22
2022-10-19T06:14:19.767Z,86.25
2022-10-19T06:17:21.998Z,86.57
2022-10-19T06:20:24.463Z,85.82
2022-10-19T06:23:34.292Z,86.45
2022-10-19T06:26:39.889Z,85.04
2022-10-19T06:29:42.293Z,85.33
2022-10-19T06:32:47.715Z,86.71
2022-10-19T06:35:56.872Z,85.98
2022-10-19T06:39:02.102Z,84.53
2022-10-19T06:42:10.060Z,83.50
2022-10-19T06:45:16.867Z,81.92
2022-10-19T06:48:19.691Z,79.44
2022-10-19T06:51:22.403Z,76.41
2022-10-19T06:54:27.847Z,76.57
2022-10-19T06:57:30.306Z,78.19
2022-10-19T07:00:35.516Z,79.61
2022-10-19T07:03:37.740Z,80.60
2022-10-19T07:06:41.282Z,76.74
2022-10-19T07:09:47.249Z,77.29
2022-10-19T07:12:50.313Z,74.85
2022-10-19T07:16:06.278Z,73.85
2022-10-19T07:19:08.674Z,74.62
2022-10-19T07:22:13.457Z,76.29
2022-10-19T07:25:18.065Z,74.92
2022-10-19T07:28:24.415Z,76.90
2022-10-19T07:31:29.642Z,78.75
2022-10-19T07:34:34.809Z,78.74
2022-10-19T07:37:37.404Z,78.29
2022-10-19T07:40:43.560Z,76.44
2022-10-19T07:43:49.927Z,74.22
2022-10-19T07:46:52.135Z,74.10
2022-10-19T07:50:16.805Z,73.77
2022-10-19T07:53:19.160Z,73.68
2022-10-19T07:56:24.124Z,74.55
2022-10-19T07:59:32.443Z,74.65
2022-10-19T08:02:45.852Z,75.34
2022-10-19T08:06:09.094Z,74.62
2022-10-19T08:09:22.803Z,74.98
2022-10-19T08:12:38.332Z,74.40
2022-10-19T08:15:40.672Z,74.16
2022-10-19T08:18:42.862Z,72.62
2022-10-19T08:21:46.996Z,71.94
2022-10-19T08:24:49.259Z,71.42
2022-10-19T08:27:51.462Z,66.15
2022-10-19T08:30:58.086Z,63.32
2022-10-19T08:34:00.501Z,64.85
2022-10-19T08:37:10.241Z,66.22
2022-10-19T08:40:33.067Z,67.04
2022-10-19T08:43:38.871Z,68.39
2022-10-19T08:46:49.420Z,68.34
2022-10-19T08:49:52.275Z,69.21
2022-10-19T08:53:08.014Z,68.53
2022-10-19T08:56:58.422Z,69.25
2022-10-19T09:00:16.505Z,68.35
2022-10-19T09:03:37.774Z,67.60
2022-10-19T09:07:23.922Z,69.08
2022-10-19T09:10:34.056Z,69.97
2022-10-19T09:14:04.174Z,69.36
2022-10-19T09:17:14.002Z,68.49
2022-10-19T09:20:29.805Z,67.63
2022-10-19T09:23:52.745Z,68.44
2022-10-19T09:27:02.320Z,68.81
2022-10-19T09:30:18.042Z,68.40
2022-10-19T09:33:36.329Z,68.77
2022-10-19T09:36:50.608Z,69.17
2022-10-19T09:39:55.541Z,68.03
2022-10-19T09:42:59.476Z,66.40
2022-10-19T09:46:20.332Z,65.91
2022-10-19T09:49:41.596Z,65.68
2022-10-19T09:53:05.301Z,66.55
2022-10-19T09:56:09.074Z,67.20
2022-10-19T09:59:23.188Z,66.93
2022-10-19T10:02:31.532Z,67.51
2022-10-19T10:05:41.447Z,67.35
2022-10-19T10:08:59.837Z,66.28
2022-10-19T10:12:08.497Z,63.97
2022-10-19T10:15:18.201Z,60.27
2022-10-19T10:18:20.778Z,59.08
2022-10-19T10:21:49.386Z,60.39
2022-10-19T10:24:56.828Z,60.83
2022-10-19T10:28:02.710Z,61.18
2022-10-19T10:31:07.588Z,59.65
2022-10-19T10:34:28.315Z,58.19
2022-10-19T10:37:45.536Z,54.12
2022-10-19T10:40:57.666Z,51.84
2022-10-19T10:44:06.766Z,48.13
2022-10-19T10:47:14.787Z,47.08
2022-10-19T10:50:24.294Z,45.98
2022-10-19T10:53:39.534Z,41.46
2022-10-19T10:56:44.454Z,39.42
2022-10-19T10:59:52.661Z,39.19
2022-10-19T11:03:13.955Z,36.38
2022-10-19T11:06:19.375Z,35.02
2022-10-19T11:09:33.495Z,32.97
2022-10-19T11:13:08.786Z,33.30
2022-10-19T11:16:26.474Z,33.17
2022-10-19T11:19:46.365Z,32.79
2022-10-19T11:23:11.249Z,32.31
2022-10-19T11:26:27.410Z,32.96
2022-10-19T11:29:48.910Z,31.44
2022-10-19T11:33:11.824Z,31.35
2022-10-19T11:36:30.326Z,29.49
2022-10-19T11:39:54.010Z,29.43
2022-10-19T11:43:26.959Z,29.40
2022-10-19T11:47:01.278Z,29.11
2022-10-19T11:50:32.462Z,29.59
2022-10-19T11:53:46.951Z,28.61
2022-10-19T11:57:03.992Z,28.44
2022-10-19T12:00:27.329Z,28.25
2022-10-19T12:04:07.775Z,27.20
2022-10-19T12:07:43.757Z,27.46
2022-10-19T12:10:54.792Z,27.70
2022-10-19T12:14:09.758Z,26.92
2022-10-19T12:17:20.473Z,27.43
2022-10-19T12:20:31.105Z,26.77
2022-10-19T12:23:37.555Z,26.58
2022-10-19T12:26:40.823Z,27.64
2022-10-19T12:29:47.888Z,26.86
2022-10-19T12:33:07.361Z,26.57
2022-10-19T12:36:30.819Z,26.77
2022-10-19T12:39:59.936Z,27.42
2022-10-19T12:43:21.728Z,27.25
2022-10-19T12:46:35.900Z,28.40
2022-10-19T12:49:47.010Z,27.53
2022-10-19T12:52:52.228Z,27.04
2022-10-19T12:56:09.289Z,27.51
2022-10-19T12:59:24.187Z,27.58
2022-10-19T13:05:57.418Z,27.58
2022-10-19T13:09:05.629Z,27.89
2022-10-19T13:12:16.257Z,27.43
2022-10-19T13:15:34.393Z,28.56
2022-10-19T13:19:13.516Z,29.54
2022-10-19T13:22:27.769Z,29.03
2022-10-19T13:25:35.046Z,29.43
2022-10-19T13:28:39.066Z,29.39
2022-10-19T13:31:41.300Z,30.02
2022-10-19T13:34:43.517Z,28.78
2022-10-19T13:37:45.740Z,30.86
2022-10-19T13:40:47.854Z,30.23
2022-10-19T13:44:12.075Z,30.14
2022-10-19T13:47:35.443Z,30.21
2022-10-19T13:51:01.419Z,29.84
2022-10-19T13:54:03.531Z,29.78
2022-10-19T13:57:05.700Z,30.40
2022-10-19T14:00:24.304Z,30.08
2022-10-19T14:03:41.291Z,30.80
2022-10-19T14:06:57.340Z,34.77
2022-10-19T14:10:07.486Z,33.88
2022-10-19T14:13:14.098Z,34.79
2022-10-19T14:16:21.721Z,37.42
2022-10-19T14:19:42.270Z,38.26
2022-10-19T14:22:44.444Z,38.57
2022-10-19T14:26:03.837Z,35.74
2022-10-19T14:29:13.543Z,35.72
2022-10-19T14:32:17.211Z,35.55
2022-10-19T14:35:33.092Z,36.18
2022-10-19T14:38:38.078Z,36.31
2022-10-19T14:41:40.264Z,36.21
2022-10-19T14:44:43.987Z,35.90
2022-10-19T14:48:01.514Z,38.51
2022-10-19T14:51:11.523Z,38.21
2022-10-19T14:54:36.988Z,39.00
2022-10-19T14:57:40.491Z,39.46
2022-10-19T15:00:43.405Z,43.10
2022-10-19T15:03:46.703Z,45.74
2022-10-19T15:06:49.355Z,47.88
2022-10-19T15:09:57.868Z,50.13
2022-10-19T15:13:05.702Z,50.87
2022-10-19T15:16:47.322Z,50.10
2022-10-19T15:19:49.565Z,49.19
2022-10-19T15:22:51.955Z,51.41
2022-10-19T15:26:03.431Z,52.49
2022-10-19T15:29:27.858Z,53.94
2022-10-19T15:32:35.565Z,54.63
2022-10-19T15:35:40.307Z,55.93
2022-10-19T15:38:44.783Z,56.35
2022-10-19T15:41:46.967Z,56.90
2022-10-19T15:44:49.735Z,57.31
2022-10-19T15:48:10.125Z,57.72
2022-10-19T15:51:27.471Z,58.01
2022-10-19T15:54:29.625Z,58.91
2022-10-19T15:57:39.310Z,59.04
2022-10-19T16:00:42.255Z,59.74
2022-10-19T16:03:45.711Z,59.65
2022-10-19T16:06:47.927Z,60.38
2022-10-19T16:09:50.091Z,60.90
2022-10-19T16:12:53.018Z,61.32
2022-10-19T16:16:10.346Z,61.44
2022-10-19T16:19:13.293Z,61.91
2022-10-19T16:22:16.208Z,62.44
2022-10-19T16:25:18.678Z,62.37
2022-10-19T16:28:20.847Z,62.80
2022-10-19T16:31:24.273Z,63.25
2022-10-19T16:34:26.480Z,63.73
2022-10-19T16:37:28.634Z,64.23
2022-10-19T16:40:31.252Z,64.51
2022-10-19T16:43:33.632Z,64.72
2022-10-19T16:46:35.804Z,65.56
2022-10-19T16:49:37.967Z,65.40
2022-10-19T16:52:40.144Z,65.64
2022-10-19T16:55:42.325Z,65.78
2022-10-19T16:58:45.642Z,66.20
2022-10-19T17:01:48.229Z,66.67
2022-10-19T17:04:50.528Z,66.44
2022-10-19T17:07:52.730Z,66.25
2022-10-19T17:10:54.908Z,66.40
2022-10-19T17:13:59.390Z,66.12
2022-10-19T17:17:01.576Z,66.86
2022-10-19T17:20:04.008Z,67.09
2022-10-19T17:23:06.211Z,67.23
2022-10-19T17:26:08.784Z,67.47
2022-10-19T17:29:11.892Z,67.98
2022-10-19T17:32:14.284Z,68.26
2022-10-19T17:35:16.456Z,68.73
2022-10-19T17:38:18.707Z,68.85
2022-10-19T17:41:22.158Z,68.68
2022-10-19T17:44:24.305Z,69.35
2022-10-19T17:47:26.471Z,70.74
2022-10-19T17:50:28.630Z,70.96
2022-10-19T17:53:31.295Z,71.82
2022-10-19T17:56:34.484Z,72.53
2022-10-19T17:59:52.045Z,73.06
2022-10-19T18:02:55.256Z,73.43
2022-10-19T18:05:57.392Z,73.54
2022-10-19T18:09:01.833Z,74.34
2022-10-19T18:12:05.022Z,74.92
2022-10-19T18:15:09.684Z,74.84
2022-10-19T18:18:11.837Z,75.10
2022-10-19T18:21:16.010Z,75.37
2022-10-19T18:24:20.243Z,75.27
2022-10-19T18:27:22.518Z,74.99
2022-10-19T18:30:24.687Z,74.82
2022-10-19T18:33:30.186Z,74.75
2022-10-19T18:36:34.640Z,75.08
2022-10-19T18:39:36.844Z,75.43
2022-10-19T18:42:39.085Z,75.92
2022-10-19T18:45:54.252Z,76.06
2022-10-19T18:48:56.424Z,75.86
2022-10-19T18:51:58.583Z,75.97
2022-10-19T18:55:00.739Z,75.56
2022-10-19T18:58:02.956Z,74.69
2022-10-19T19:01:10.336Z,74.28
2022-10-19T19:04:12.576Z,73.83
2022-10-19T19:07:14.739Z,73.48
2022-10-19T19:10:18.281Z,72.97
2022-10-19T19:13:20.574Z,73.02
2022-10-19T19:16:23.664Z,72.99
2022-10-19T19:19:27.518Z,72.57
2022-10-19T19:22:30.471Z,72.74
2022-10-19T19:25:32.650Z,73.08
2022-10-19T19:28:37.777Z,72.69
2022-10-19T19:31:42.978Z,72.81
2022-10-19T19:34:45.167Z,72.74
2022-10-19T19:37:47.325Z,72.45
2022-10-19T19:40:49.692Z,73.05
2022-10-19T19:43:51.923Z,72.94
2022-10-19T19:46:54.077Z,72.91
2022-10-19T19:49:56.235Z,73.08
2022-10-19T19:52:58.972Z,72.90
2022-10-19T19:56:01.168Z,72.47
2022-10-19T19:59:06.267Z,72.55
2022-10-19T20:02:09.458Z,72.25
2022-10-19T20:05:11.620Z,72.56
2022-10-19T20:08:13.854Z,72.37
2022-10-19T20:11:17.546Z,72.69
2022-10-19T20:14:20.141Z,72.60
2022-10-19T20:17:23.871Z,72.57
2022-10-19T20:20:26.059Z,73.15
2022-10-19T20:23:29.515Z,73.34
2022-10-19T20:26:31.994Z,73.39
2022-10-19T20:29:34.163Z,73.52
2022-10-19T20:32:37.758Z,73.94
2022-10-19T20:35:40.191Z,74.07
2022-10-19T20:38:53.198Z,74.17
2022-10-19T20:41:55.610Z,73.76
2022-10-19T20:44:57.839Z,73.29
2022-10-19T20:48:00.097Z,73.24
2022-10-19T20:51:14.708Z,72.74
2022-10-19T20:54:17.059Z,73.62
2022-10-19T20:57:19.226Z,73.06
2022-10-19T21:00:21.389Z,72.57
2022-10-19T21:03:23.948Z,72.56
2022-10-19T21:06:28.441Z,73.48
2022-10-19T21:09:30.763Z,73.23
2022-10-19T21:12:33.279Z,72.39
2022-10-19T21:15:35.628Z,72.93
2022-10-19T21:18:38.156Z,73.37
2022-10-19T21:21:46.225Z,72.80
2022-10-19T21:24:48.372Z,72.84
2022-10-19T21:27:52.036Z,72.36
2022-10-19T21:30:54.201Z,72.47
2022-10-19T21:33:56.891Z,71.79
2022-10-19T21:36:59.883Z,72.26
2022-10-19T21:40:02.075Z,72.80
2022-10-19T21:43:04.630Z,72.72
2022-10-19T21:46:11.015Z,72.07
2022-10-19T21:49:13.588Z,72.64
2022-10-19T21:52:16.238Z,72.19
2022-10-19T21:55:18.511Z,72.07
2022-10-19T21:58:22.267Z,71.92
2022-10-19T22:01:27.825Z,71.76
2022-10-19T22:04:30.079Z,72.03
2022-10-19T22:07:32.394Z,71.84
2022-10-19T22:10:37.707Z,72.32
2022-10-19T22:13:40.034Z,72.29
2022-10-19T22:16:42.686Z,71.99
2022-10-19T22:19:44.836Z,71.76
2022-10-19T22:22:49.233Z,72.12
2022-10-19T22:25:53.672Z,71.99
2022-10-19T22:28:58.065Z,72.09
2022-10-19T22:32:00.234Z,71.99
2022-10-19T22:35:02.403Z,72.34
2022-10-19T22:38:04.628Z,72.69
2022-10-19T22:41:06.827Z,72.61
2022-10-19T22:44:08.979Z,72.37
2022-10-19T22:47:11.199Z,72.28
2022-10-19T22:50:14.259Z,72.45
2022-10-19T22:53:16.412Z,72.80
2022-10-19T22:56:18.632Z,73.08
2022-10-19T22:59:20.798Z,72.83
2022-10-19T23:02:23.004Z,73.17
2022-10-19T23:05:25.211Z,73.25
2022-10-19T23:08:27.915Z,73.56
2022-10-19T23:11:30.108Z,73.57
2022-10-19T23:14:32.298Z,73.65
2022-10-19T23:17:34.721Z,74.02
2022-10-19T23:20:37.025Z,74.04
2022-10-19T23:23:39.401Z,74.29
2022-10-19T23:26:41.554Z,74.24
2022-10-19T23:29:43.719Z,74.57
2022-10-19T23:32:45.866Z,74.24
2022-10-19T23:35:48.035Z,74.45
2022-10-19T23:38:51.588Z,74.88
2022-10-19T23:41:53.744Z,74.42
2022-10-19T23:44:55.955Z,74.92
2022-10-19T23:47:58.180Z,74.81
2022-10-19T23:51:01.174Z,74.72
2022-10-19T23:54:03.412Z,74.73
2022-10-19T23:57:05.979Z,74.75
